createdAt,value
2022-12-18T00:00:32.923Z,9.63
2022-12-18T00:04:21.928Z,6.03
2022-12-18T00:08:11.915Z,5.07
2022-12-18T00:11:24.050Z,6.62
2022-12-18T00:15:05.556Z,6.55
2022-12-18T00:18:43.174Z,5.20
2022-12-18T00:22:21.063Z,12.10
2022-12-18T00:26:02.324Z,7.03
2022-12-18T00:29:42.581Z,4.78
2022-12-18T00:33:16.999Z,8.88
2022-12-18T00:36:55.855Z,6.35
2022-12-18T00:40:13.632Z,6.07
2022-12-18T00:43:37.131Z,6.65
2022-12-18T00:47:04.906Z,6.07
2022-12-18T00:50:29.643Z,4.05
2022-12-18T00:54:21.228Z,3.12
2022-12-18T00:58:02.908Z,3.92
2022-12-18T01:01:24.896Z,10.63
2022-12-18T01:08:24.770Z,7.95
2022-12-18T01:11:56.451Z,13.70
2022-12-18T01:15:30.725Z,8.32
2022-12-18T01:19:11.554Z,4.18
2022-12-18T01:22:42.703Z,11.20
2022-12-18T01:26:48.986Z,10.38
2022-12-18T01:30:16.982Z,5.90
2022-12-18T01:33:54.306Z,4.12
2022-12-18T01:36:58.049Z,9.55
2022-12-18T01:40:00.810Z,9.57
2022-12-18T01:43:47.576Z,7.80
2022-12-18T01:47:04.977Z,13.95
2022-12-18T01:50:44.669Z,11.02
2022-12-18T01:54:13.981Z,12.57
2022-12-18T01:57:33.594Z,5.30
2022-12-18T02:01:16.950Z,9.65
2022-12-18T02:05:14.218Z,12.13
2022-12-18T02:09:13.768Z,6.22
2022-12-18T02:13:16.789Z,5.78
2022-12-18T02:17:05.150Z,2.75
2022-12-18T02:20:37.664Z,4.35
2022-12-18T02:24:47.557Z,7.12
2022-12-18T02:28:29.465Z,8.50
2022-12-18T02:31:57.424Z,6.03
2022-12-18T02:35:42.785Z,10.25
2022-12-18T02:39:15.410Z,6.72
2022-12-18T02:42:44.216Z,2.80
2022-12-18T02:46:26.995Z,4.12
2022-12-18T02:50:06.941Z,4.90
2022-12-18T02:54:00.264Z,7.93
2022-12-18T02:57:41.061Z,4.18
2022-12-18T03:01:18.465Z,11.10
2022-12-18T03:05:15.634Z,14.13
2022-12-18T03:08:52.414Z,10.23
2022-12-18T03:12:32.793Z,7.15
2022-12-18T03:16:01.544Z,5.05
2022-12-18T03:19:25.741Z,11.80
2022-12-18T03:22:54.865Z,3.05
2022-12-18T03:26:36.519Z,3.65
2022-12-18T03:30:16.179Z,10.60
2022-12-18T03:34:01.074Z,4.85
2022-12-18T03:37:56.972Z,8.13
2022-12-18T03:41:34.035Z,3.17
2022-12-18T03:45:16.778Z,11.43
2022-12-18T03:48:48.699Z,7.05
2022-12-18T03:52:38.460Z,3.40
2022-12-18T03:55:44.093Z,6.15
2022-12-18T03:59:28.523Z,5.32
2022-12-18T04:03:12.592Z,6.75
2022-12-18T04:06:54.560Z,7.60
2022-12-18T04:10:02.865Z,3.80
2022-12-18T04:13:36.401Z,7.07
2022-12-18T04:17:19.310Z,8.48
2022-12-18T04:20:53.774Z,6.03
2022-12-18T04:24:23.473Z,6.65
2022-12-18T04:27:58.963Z,5.87
2022-12-18T04:31:44.225Z,6.40
2022-12-18T04:34:52.633Z,8.38
2022-12-18T04:38:28.380Z,7.57
2022-12-18T04:42:00.022Z,8.88
2022-12-18T04:45:24.659Z,4.65
2022-12-18T04:49:02.532Z,6.12
2022-12-18T04:52:33.431Z,12.88
2022-12-18T04:55:36.819Z,4.18
2022-12-18T04:59:06.241Z,8.27
2022-12-18T05:02:40.471Z,4.75
2022-12-18T05:05:46.930Z,4.70
2022-12-18T05:09:04.603Z,4.53
2022-12-18T05:12:59.984Z,2.37
2022-12-18T05:16:43.304Z,8.18
2022-12-18T05:20:39.612Z,8.80
2022-12-18T05:24:00.815Z,2.97
2022-12-18T05:27:29.580Z,4.85
2022-12-18T05:31:05.588Z,5.28
2022-12-18T05:34:40.600Z,10.40
2022-12-18T05:38:14.825Z,7.75
2022-12-18T05:41:47.736Z,3.20
2022-12-18T05:45:07.159Z,5.30
2022-12-18T05:48:43.907Z,14.70
2022-12-18T05:52:22.405Z,3.30
2022-12-18T05:55:50.270Z,10.07
2022-12-18T05:59:09.139Z,5.55
2022-12-18T06:02:28.051Z,6.55
2022-12-18T06:06:02.157Z,5.12
2022-12-18T06:09:44.016Z,8.13
2022-12-18T06:13:14.523Z,8.40
2022-12-18T06:16:34.558Z,4.15
2022-12-18T06:20:09.243Z,4.55
2022-12-18T06:23:38.257Z,22.73
2022-12-18T06:26:44.307Z,7.28
2022-12-18T06:30:12.483Z,6.32
2022-12-18T06:33:55.532Z,3.70
2022-12-18T06:37:12.860Z,7.07
2022-12-18T06:40:56.595Z,2.22
2022-12-18T06:44:13.678Z,4.57
2022-12-18T06:47:42.614Z,7.00
2022-12-18T06:51:14.284Z,14.32
2022-12-18T06:55:09.413Z,6.18
2022-12-18T06:58:15.957Z,4.60
2022-12-18T07:02:19.527Z,9.55
2022-12-18T07:05:51.856Z,3.50
2022-12-18T07:09:10.729Z,4.93
2022-12-18T07:12:34.421Z,10.20
2022-12-18T07:16:40.002Z,11.93
2022-12-18T07:20:27.184Z,17.15
2022-12-18T07:23:49.491Z,11.30
2022-12-18T07:27:14.158Z,5.07
2022-12-18T07:30:39.516Z,7.28
2022-12-18T07:34:29.365Z,7.30
2022-12-18T07:38:02.765Z,9.43
2022-12-18T07:41:14.273Z,5.72
2022-12-18T07:45:03.217Z,2.30
2022-12-18T07:49:13.165Z,4.12
2022-12-18T07:52:18.426Z,17.92
2022-12-18T07:56:29.639Z,5.15
2022-12-18T07:59:57.050Z,10.00
2022-12-18T08:03:43.353Z,7.93
2022-12-18T08:07:02.991Z,8.65
2022-12-18T08:10:09.027Z,9.07
2022-12-18T08:13:43.904Z,4.60
2022-12-18T08:17:24.745Z,5.10
2022-12-18T08:20:53.595Z,4.15
2022-12-18T08:24:03.538Z,6.40
2022-12-18T08:28:11.623Z,6.12
2022-12-18T08:31:32.957Z,7.53
2022-12-18T08:35:17.556Z,8.02
2022-12-18T08:38:53.578Z,13.40
2022-12-18T08:42:32.389Z,9.55
2022-12-18T08:46:00.763Z,5.12
2022-12-18T08:49:07.203Z,8.88
2022-12-18T08:52:37.012Z,3.75
2022-12-18T08:56:10.962Z,10.48
2022-12-18T08:59:29.898Z,19.05
2022-12-18T09:03:20.586Z,7.18
2022-12-18T09:06:45.955Z,9.88
2022-12-18T09:10:24.715Z,19.75
2022-12-18T09:13:48.046Z,9.57
2022-12-18T09:17:43.525Z,12.93
2022-12-18T09:21:13.969Z,10.05
2022-12-18T09:24:31.710Z,11.20
2022-12-18T09:27:35.898Z,11.48
2022-12-18T09:31:09.048Z,26.15
2022-12-18T09:34:32.085Z,9.18
2022-12-18T09:37:55.677Z,13.75
2022-12-18T09:41:33.644Z,13.90
2022-12-18T09:45:04.873Z,11.65
2022-12-18T09:48:50.066Z,9.65
2022-12-18T09:52:35.599Z,11.90
2022-12-18T09:59:37.484Z,8.45
2022-12-18T10:03:34.920Z,9.57
2022-12-18T10:07:09.436Z,15.45
2022-12-18T10:10:37.982Z,15.73
2022-12-18T10:14:40.094Z,12.82
2022-12-18T10:18:21.675Z,17.15
2022-12-18T10:21:41.377Z,15.25
2022-12-18T10:25:00.155Z,14.45
2022-12-18T10:28:14.660Z,15.38
2022-12-18T10:31:25.083Z,15.88
2022-12-18T10:34:28.098Z,16.58
2022-12-18T10:37:35.627Z,17.58
2022-12-18T10:41:00.358Z,14.13
2022-12-18T10:44:37.733Z,14.63
2022-12-18T10:47:51.291Z,8.70
2022-12-18T10:51:21.600Z,16.05
2022-12-18T10:54:54.232Z,33.17
2022-12-18T10:58:33.870Z,9.00
2022-12-18T11:01:59.828Z,9.48
2022-12-18T11:05:42.319Z,12.43
2022-12-18T11:09:23.947Z,14.25
2022-12-18T11:12:29.723Z,14.80
2022-12-18T11:15:34.522Z,16.83
2022-12-18T11:18:39.098Z,17.27
2022-12-18T11:21:57.273Z,17.33
2022-12-18T11:28:39.131Z,21.02
2022-12-18T11:31:43.114Z,24.63
2022-12-18T11:35:00.673Z,26.95
2022-12-18T11:38:19.933Z,23.80
2022-12-18T11:42:13.055Z,27.08
2022-12-18T11:45:19.403Z,26.42
2022-12-18T11:48:39.092Z,34.55
2022-12-18T11:52:37.298Z,25.80
2022-12-18T11:55:47.875Z,28.40
2022-12-18T11:59:21.288Z,24.77
2022-12-18T12:02:35.063Z,26.35
2022-12-18T12:05:57.248Z,18.05
2022-12-18T12:09:29.039Z,19.58
2022-12-18T12:12:51.227Z,21.35
2022-12-18T12:16:11.198Z,22.00
2022-12-18T12:20:09.993Z,22.15
2022-12-18T12:27:36.535Z,30.25
2022-12-18T12:31:38.492Z,18.83
2022-12-18T12:43:26.806Z,15.55
2022-12-18T12:46:48.494Z,21.42
2022-12-18T12:50:20.631Z,14.55
2022-12-18T12:53:49.481Z,22.62
2022-12-18T12:58:29.457Z,14.48
2022-12-18T13:02:17.278Z,12.25
2022-12-18T13:06:15.652Z,19.58
2022-12-18T13:10:25.713Z,17.33
2022-12-18T13:13:59.720Z,17.75
2022-12-18T13:17:38.366Z,12.93
2022-12-18T13:21:30.730Z,14.57
2022-12-18T13:25:37.618Z,11.98
2022-12-18T13:29:16.560Z,8.27
2022-12-18T13:32:42.768Z,14.68
2022-12-18T13:36:35.070Z,18.62
2022-12-18T13:40:45.122Z,14.57
2022-12-18T13:44:40.907Z,21.20
2022-12-18T13:48:27.604Z,22.80
2022-12-18T13:52:23.001Z,20.88
2022-12-18T13:55:47.289Z,19.17
2022-12-18T13:59:17.533Z,24.98
2022-12-18T14:03:02.170Z,19.73
2022-12-18T14:06:40.845Z,25.80
2022-12-18T14:13:43.535Z,13.85
2022-12-18T14:17:01.063Z,20.77
2022-12-18T14:20:36.717Z,21.15
2022-12-18T14:24:19.787Z,18.15
2022-12-18T14:28:10.580Z,25.30
2022-12-18T14:31:38.381Z,25.05
2022-12-18T14:35:15.200Z,23.12
2022-12-18T14:38:55.907Z,19.67
2022-12-18T14:42:23.551Z,14.87
2022-12-18T14:45:43.860Z,18.27
2022-12-18T14:49:25.230Z,9.52
2022-12-18T14:56:21.153Z,11.25
2022-12-18T15:00:09.459Z,16.70
2022-12-18T15:03:48.902Z,25.25
2022-12-18T15:07:25.337Z,9.07
2022-12-18T15:11:01.443Z,14.50
2022-12-18T15:14:42.780Z,18.17
2022-12-18T15:18:22.187Z,14.25
2022-12-18T15:21:59.112Z,13.43
2022-12-18T15:25:40.651Z,13.00
2022-12-18T15:29:00.995Z,12.70
2022-12-18T15:32:31.011Z,13.73
2022-12-18T15:36:10.385Z,15.73
2022-12-18T15:39:42.768Z,23.20
2022-12-18T15:43:30.677Z,19.37
2022-12-18T15:50:49.130Z,16.67
2022-12-18T15:58:37.963Z,10.73
2022-12-18T16:02:23.781Z,16.95
2022-12-18T16:06:04.198Z,19.73
2022-12-18T16:09:44.424Z,8.98
2022-12-18T16:13:21.856Z,16.55
2022-12-18T16:17:30.070Z,25.02
2022-12-18T16:21:03.001Z,16.60
2022-12-18T16:24:39.643Z,16.25
2022-12-18T16:28:26.300Z,17.02
2022-12-18T16:32:02.257Z,23.87
2022-12-18T16:35:32.003Z,22.33
2022-12-18T16:38:57.608Z,22.95
2022-12-18T16:42:36.630Z,12.50
2022-12-18T16:46:00.050Z,16.33
2022-12-18T16:49:04.607Z,13.23
2022-12-18T16:52:39.100Z,18.08
2022-12-18T16:56:14.652Z,37.00
2022-12-18T16:59:36.881Z,30.60
2022-12-18T17:03:11.957Z,22.25
2022-12-18T17:06:53.132Z,12.73
2022-12-18T17:10:21.388Z,21.17
2022-12-18T17:13:56.096Z,20.95
2022-12-18T17:17:27.479Z,18.10
2022-12-18T17:20:46.094Z,21.67
2022-12-18T17:24:21.937Z,15.60
2022-12-18T17:27:55.145Z,10.23
2022-12-18T17:31:42.218Z,13.65
2022-12-18T17:35:13.562Z,15.98
2022-12-18T17:39:06.927Z,20.88
2022-12-18T17:42:49.191Z,15.65
2022-12-18T17:50:17.544Z,24.35
2022-12-18T17:54:02.845Z,15.82
2022-12-18T17:58:35.558Z,21.98
2022-12-18T18:02:27.521Z,18.70
2022-12-18T18:06:34.899Z,24.30
2022-12-18T18:10:19.755Z,19.90
2022-12-18T18:18:16.694Z,27.92
2022-12-18T18:21:52.865Z,33.03
2022-12-18T18:25:31.797Z,13.02
2022-12-18T18:36:37.026Z,22.80
2022-12-18T18:41:17.595Z,32.45
2022-12-18T18:45:25.321Z,19.33
2022-12-18T18:48:54.749Z,20.45
2022-12-18T18:52:25.792Z,24.67
2022-12-18T19:03:29.019Z,23.20
2022-12-18T19:07:01.801Z,24.17
2022-12-18T19:10:25.609Z,24.75
2022-12-18T19:17:50.010Z,13.55
2022-12-18T19:21:34.938Z,16.98
2022-12-18T19:25:12.480Z,17.40
2022-12-18T19:28:38.674Z,17.00
2022-12-18T19:31:58.646Z,36.90
2022-12-18T19:35:25.872Z,29.48
2022-12-18T19:39:16.471Z,21.80
2022-12-18T19:42:38.842Z,25.25
2022-12-18T19:46:24.398Z,29.48
2022-12-18T19:49:57.382Z,15.02
2022-12-18T19:53:41.753Z,23.10
2022-12-18T19:56:53.628Z,47.97
2022-12-18T20:00:28.967Z,24.50
2022-12-18T20:04:09.257Z,32.53
2022-12-18T20:07:38.513Z,22.73
2022-12-18T20:11:23.905Z,24.08
2022-12-18T20:18:41.044Z,20.17
2022-12-18T20:22:11.354Z,35.38
2022-12-18T20:26:03.637Z,30.75
2022-12-18T20:29:38.437Z,20.42
2022-12-18T20:36:50.853Z,23.90
2022-12-18T20:40:31.968Z,34.13
2022-12-18T20:44:20.650Z,37.25
2022-12-18T20:47:37.126Z,28.42
2022-12-18T20:51:10.512Z,16.27
2022-12-18T20:54:51.663Z,28.85
2022-12-18T20:58:27.151Z,27.42
2022-12-18T21:02:06.165Z,13.68
2022-12-18T21:05:41.565Z,23.02
2022-12-18T21:09:00.175Z,20.67
2022-12-18T21:12:42.700Z,24.92
2022-12-18T21:16:11.189Z,30.75
2022-12-18T21:19:49.822Z,30.65
2022-12-18T21:23:20.332Z,20.65
2022-12-18T21:26:56.581Z,14.95
2022-12-18T21:30:28.629Z,22.15
2022-12-18T21:34:05.822Z,19.25
2022-12-18T21:37:23.936Z,21.77
2022-12-18T21:40:53.236Z,23.50
2022-12-18T21:44:25.629Z,24.02
2022-12-18T21:48:00.002Z,18.17
2022-12-18T21:51:32.885Z,15.20
2022-12-18T21:55:00.738Z,15.38
2022-12-18T21:58:30.684Z,20.70
2022-12-18T22:02:11.223Z,16.02
2022-12-18T22:05:28.403Z,23.80
2022-12-18T22:09:16.710Z,13.98
2022-12-18T22:12:39.783Z,12.20
2022-12-18T22:16:15.130Z,17.00
2022-12-18T22:23:43.849Z,19.17
2022-12-18T22:27:19.099Z,11.63
2022-12-18T22:31:01.073Z,13.65
2022-12-18T22:34:36.925Z,14.52
2022-12-18T22:38:17.328Z,10.55
2022-12-18T22:41:53.540Z,8.02
2022-12-18T22:45:24.021Z,9.57
2022-12-18T22:48:50.497Z,13.60
2022-12-18T22:51:55.611Z,15.90
2022-12-18T22:55:28.510Z,12.43
2022-12-18T22:58:47.724Z,5.35
2022-12-18T23:02:36.584Z,16.15
2022-12-18T23:06:08.811Z,15.48
2022-12-18T23:09:35.206Z,25.62
2022-12-18T23:13:03.482Z,14.45
2022-12-18T23:16:24.091Z,10.35
2022-12-18T23:20:16.836Z,11.60
2022-12-18T23:23:56.972Z,5.75
2022-12-18T23:27:39.649Z,14.30
2022-12-18T23:31:17.625Z,8.73
2022-12-18T23:34:45.190Z,5.03
2022-12-18T23:38:37.301Z,9.63
2022-12-18T23:42:38.709Z,8.60
2022-12-18T23:45:57.811Z,11.35
2022-12-18T23:49:26.044Z,6.05
2022-12-18T23:52:45.108Z,19.37
2022-12-18T23:56:09.350Z,13.68
2022-12-18T23:59:58.392Z,7.22
